Time;durP1;ratioP1;P1;durP2;ratioP2;P2;SDS_P1;SDS_P2;PMS_P1;PMS_P2;Temp;Humidity;BMP_temperature;BMP_pressure;BME280_temperature;BME280_humidity;BME280_pressure;Samples;Min_cycle;Max_cycle;Signal;HPM_P1;HPM_P2
2022/02/07 00:02:13;;;;;;;158.73;67.07;;;;;;;;;;5098130;28;20526;-85
2022/02/07 00:04:45;;;;;;;159.10;65.45;;;;;;;;;;5099230;28;20482;-86
2022/02/07 00:07:16;;;;;;;162.73;66.72;;;;;;;;;;5105247;28;20966;-87
2022/02/07 00:09:44;;;;;;;164.90;69.35;;;;;;;;;;5104882;28;20399;-86
2022/02/07 00:12:12;;;;;;;158.88;66.95;;;;;;;;;;5105263;28;20497;-86
2022/02/07 00:14:39;;;;;;;163.63;69.10;;;;;;;;;;5106513;28;20390;-85
2022/02/07 00:17:06;;;;;;;162.50;66.53;;;;;;;;;;5106535;28;20394;-87
2022/02/07 00:19:33;;;;;;;171.10;68.03;;;;;;;;;;5106785;28;20424;-86
2022/02/07 00:22:00;;;;;;;173.52;70.43;;;;;;;;;;5106489;28;20414;-86
2022/02/07 00:24:27;;;;;;;172.75;69.53;;;;;;;;;;5106773;28;20870;-87
2022/02/07 00:26:55;;;;;;;176.38;71.90;;;;;;;;;;5103624;28;20445;-85
2022/02/07 00:29:22;;;;;;;168.93;69.80;;;;;;;;;;5106645;28;20447;-86
2022/02/07 00:31:49;;;;;;;177.65;72.85;;;;;;;;;;5106351;28;20399;-87
2022/02/07 00:34:16;;;;;;;175.23;71.38;;;;;;;;;;5105655;28;20477;-87
2022/02/07 00:36:43;;;;;;;169.63;67.65;;;;;;;;;;5106580;28;20390;-86
2022/02/07 00:39:16;;;;;;;174.15;70.75;;;;;;;;;;5106615;28;20750;-86
2022/02/07 00:41:47;;;;;;;177.98;71.13;;;;;;;;;;5106312;28;20493;-85
2022/02/07 00:44:18;;;;;;;171.23;68.85;;;;;;;;;;5106329;28;20413;-88
2022/02/07 00:46:57;;;;;;;165.85;69.03;;;;;;;;;;5106511;28;20531;-86
2022/02/07 00:49:24;;;;;;;175.37;70.77;;;;;;;;;;5106062;28;20464;-86
2022/02/07 00:51:51;;;;;;;184.95;71.20;;;;;;;;;;5106203;28;20792;-85
2022/02/07 00:54:18;;;;;;;177.10;71.63;;;;;;;;;;5105566;28;20508;-86
2022/02/07 00:56:45;;;;;;;182.88;71.53;;;;;;;;;;5105081;28;20927;-84
2022/02/07 00:59:12;;;;;;;187.68;73.53;;;;;;;;;;5105989;28;20480;-85
2022/02/07 01:01:40;;;;;;;188.75;73.30;;;;;;;;;;5105405;28;20418;-85
2022/02/07 01:04:07;;;;;;;189.70;72.40;;;;;;;;;;5104787;28;20406;-86
2022/02/07 01:06:34;;;;;;;192.45;72.45;;;;;;;;;;5105216;28;20391;-86
2022/02/07 01:09:12;;;;;;;181.77;69.23;;;;;;;;;;5104915;28;20409;-86
2022/02/07 01:11:55;;;;;;;174.02;66.22;;;;;;;;;;5104924;28;20405;-85
2022/02/07 01:14:35;;;;;;;194.23;72.85;;;;;;;;;;5105101;28;20438;-86
2022/02/07 01:17:48;;;;;;;209.70;75.18;;;;;;;;;;5103432;28;20760;-85
2022/02/07 01:53:19;;;;;;;188.98;69.45;;;;;;;;;;5103560;28;20496;-86
2022/02/07 01:55:50;;;;;;;184.60;68.18;;;;;;;;;;5103714;28;20932;-87
2022/02/07 01:58:17;;;;;;;181.60;68.43;;;;;;;;;;5104011;28;20406;-86
2022/02/07 02:00:44;;;;;;;167.02;64.35;;;;;;;;;;5105061;28;20394;-86
2022/02/07 02:03:11;;;;;;;181.80;68.23;;;;;;;;;;5104763;28;20418;-86
2022/02/07 02:05:40;;;;;;;178.95;65.72;;;;;;;;;;5104722;28;20477;-86
2022/02/07 02:08:08;;;;;;;177.48;68.05;;;;;;;;;;5104369;28;20402;-86
2022/02/07 02:10:36;;;;;;;183.10;67.80;;;;;;;;;;5104533;28;20394;-85
2022/02/07 02:13:09;;;;;;;177.27;67.55;;;;;;;;;;5104372;28;20878;-85
2022/02/07 02:15:42;;;;;;;172.80;64.28;;;;;;;;;;5104710;28;20418;-85
2022/02/07 02:37:50;;;;;;;165.82;62.70;;;;;;;;;;5041325;28;20643;-85
2022/02/07 02:45:47;;;;;;;179.15;66.50;;;;;;;;;;5103058;28;20482;-86
2022/02/07 02:48:19;;;;;;;181.18;65.30;;;;;;;;;;5103721;28;20942;-86
2022/02/07 02:50:49;;;;;;;183.52;63.17;;;;;;;;;;5104168;28;20432;-85
2022/02/07 02:53:17;;;;;;;176.63;63.78;;;;;;;;;;5099718;28;20498;-85
2022/02/07 02:55:47;;;;;;;175.40;62.92;;;;;;;;;;5103279;28;20397;-86
2022/02/07 02:58:18;;;;;;;174.73;64.03;;;;;;;;;;5103677;28;20394;-87
2022/02/07 03:00:49;;;;;;;168.65;62.53;;;;;;;;;;5103376;28;20426;-85
2022/02/07 03:03:16;;;;;;;167.57;63.50;;;;;;;;;;5104833;28;20480;-86
2022/02/07 03:05:45;;;;;;;166.23;62.47;;;;;;;;;;5104645;28;20406;-86
2022/02/07 03:08:12;;;;;;;184.87;63.30;;;;;;;;;;5104308;28;20415;-86
2022/02/07 03:10:49;;;;;;;165.13;61.63;;;;;;;;;;5104388;28;20406;-85
2022/02/07 03:13:18;;;;;;;166.00;57.75;;;;;;;;;;5104967;28;20403;-85
2022/02/07 03:18:44;;;;;;;171.65;62.95;;;;;;;;;;5053826;28;20867;-85
2022/02/07 03:21:11;;;;;;;183.07;65.55;;;;;;;;;;5054399;28;20396;-85
2022/02/07 03:23:38;;;;;;;190.55;63.08;;;;;;;;;;5078433;28;20905;-85
2022/02/07 03:26:05;;;;;;;175.07;62.78;;;;;;;;;;5108506;28;20447;-85
2022/02/07 03:28:33;;;;;;;185.68;61.22;;;;;;;;;;5108097;28;20391;-86
2022/02/07 03:31:00;;;;;;;164.23;61.78;;;;;;;;;;5108411;28;20403;-86
2022/02/07 03:33:27;;;;;;;175.57;61.60;;;;;;;;;;5107971;28;20399;-85
2022/02/07 03:35:54;;;;;;;162.00;58.45;;;;;;;;;;5108718;28;20402;-86
2022/02/07 03:38:21;;;;;;;158.02;60.58;;;;;;;;;;5107913;28;20394;-86
2022/02/07 03:40:48;;;;;;;161.95;59.35;;;;;;;;;;5108011;28;20398;-85
2022/02/07 03:43:15;;;;;;;169.73;60.80;;;;;;;;;;5107921;28;20959;-86
2022/02/07 03:45:43;;;;;;;167.82;59.97;;;;;;;;;;5107863;28;20463;-86
2022/02/07 03:48:10;;;;;;;164.13;61.55;;;;;;;;;;5107952;28;20443;-86
2022/02/07 03:50:37;;;;;;;162.98;60.78;;;;;;;;;;5107798;28;20464;-86
2022/02/07 03:53:04;;;;;;;161.45;60.70;;;;;;;;;;5103487;28;20620;-87
2022/02/07 03:55:31;;;;;;;159.63;60.43;;;;;;;;;;5105479;28;20489;-85
2022/02/07 03:57:58;;;;;;;167.70;61.40;;;;;;;;;;5108016;28;20691;-86
2022/02/07 04:00:25;;;;;;;173.15;62.95;;;;;;;;;;5107340;28;20395;-86
2022/02/07 04:02:55;;;;;;;166.77;61.97;;;;;;;;;;5107866;28;20507;-85
2022/02/07 04:05:42;;;;;;;160.50;60.53;;;;;;;;;;5107305;28;20873;-85
2022/02/07 04:08:11;;;;;;;171.95;63.75;;;;;;;;;;5105298;28;20425;-86
2022/02/07 04:10:48;;;;;;;174.90;63.93;;;;;;;;;;5105596;28;20493;-87
2022/02/07 04:13:17;;;;;;;158.32;60.38;;;;;;;;;;5106445;28;20858;-85
2022/02/07 04:15:43;;;;;;;160.50;60.80;;;;;;;;;;5105973;28;20460;-87
2022/02/07 04:18:14;;;;;;;152.95;60.15;;;;;;;;;;5107474;28;20402;-86
2022/02/07 04:20:41;;;;;;;154.83;59.60;;;;;;;;;;5107157;28;20423;-85
2022/02/07 04:23:08;;;;;;;156.02;59.72;;;;;;;;;;5107046;28;20510;-86
2022/02/07 04:25:35;;;;;;;153.20;58.03;;;;;;;;;;5107408;28;20410;-85
2022/02/07 04:28:02;;;;;;;144.55;57.92;;;;;;;;;;5107590;28;20728;-86
2022/02/07 04:30:29;;;;;;;148.10;57.60;;;;;;;;;;5110675;28;20406;-86
2022/02/07 04:32:56;;;;;;;144.75;57.20;;;;;;;;;;5115436;28;20449;-86
2022/02/07 04:35:24;;;;;;;148.10;57.05;;;;;;;;;;5133148;28;20394;-86
2022/02/07 04:37:51;;;;;;;152.65;58.80;;;;;;;;;;5116946;28;20471;-86
2022/02/07 04:40:18;;;;;;;145.02;57.75;;;;;;;;;;5102645;28;20463;-86
2022/02/07 04:42:45;;;;;;;161.93;61.00;;;;;;;;;;5106990;28;20886;-84
2022/02/07 04:45:27;;;;;;;141.43;57.40;;;;;;;;;;5107273;28;20498;-85
2022/02/07 04:48:14;;;;;;;146.95;60.05;;;;;;;;;;5104158;28;20403;-86
2022/02/07 04:50:51;;;;;;;153.93;58.83;;;;;;;;;;5106119;28;20398;-85
2022/02/07 04:53:25;;;;;;;147.02;58.28;;;;;;;;;;5102845;28;20849;-86
2022/02/07 04:56:14;;;;;;;155.80;59.97;;;;;;;;;;5103667;28;20508;-86
2022/02/07 04:58:53;;;;;;;152.20;58.85;;;;;;;;;;5106244;28;20398;-86
2022/02/07 05:01:31;;;;;;;149.18;58.15;;;;;;;;;;5102680;28;20459;-86
2022/02/07 05:04:03;;;;;;;149.30;56.40;;;;;;;;;;5101151;28;20432;-86
2022/02/07 05:14:49;;;;;;;172.40;62.22;;;;;;;;;;5105459;28;20417;-86
2022/02/07 05:17:19;;;;;;;178.88;63.53;;;;;;;;;;5105843;28;20876;-86
2022/02/07 05:19:45;;;;;;;176.13;65.43;;;;;;;;;;5106067;28;20398;-86
2022/02/07 05:22:14;;;;;;;177.18;62.83;;;;;;;;;;5105719;28;20406;-86
2022/02/07 05:24:40;;;;;;;173.95;62.72;;;;;;;;;;5105242;28;20828;-86
2022/02/07 05:27:07;;;;;;;178.25;62.97;;;;;;;;;;5105264;28;20407;-86
2022/02/07 05:29:34;;;;;;;194.60;68.28;;;;;;;;;;5105485;28;20893;-86
2022/02/07 05:32:02;;;;;;;194.70;68.85;;;;;;;;;;5105715;28;20768;-85
2022/02/07 05:34:29;;;;;;;204.25;69.55;;;;;;;;;;5103766;28;20409;-86
2022/02/07 05:36:57;;;;;;;187.57;67.97;;;;;;;;;;5105538;28;20566;-86
2022/02/07 05:39:32;;;;;;;179.53;67.07;;;;;;;;;;5105203;28;20406;-87
2022/02/07 05:42:04;;;;;;;169.60;62.22;;;;;;;;;;5104652;28;20877;-87
2022/02/07 05:44:31;;;;;;;167.85;64.90;;;;;;;;;;5102253;28;20489;-86
2022/02/07 05:46:58;;;;;;;160.48;64.03;;;;;;;;;;5101509;28;20395;-85
2022/02/07 05:49:25;;;;;;;160.63;62.80;;;;;;;;;;5096025;28;20398;-85
2022/02/07 05:51:52;;;;;;;154.60;62.35;;;;;;;;;;5096078;28;20400;-86
2022/02/07 05:54:19;;;;;;;158.18;64.40;;;;;;;;;;5090393;28;20885;-88
2022/02/07 05:56:47;;;;;;;150.57;59.40;;;;;;;;;;5096461;28;20863;-85
2022/02/07 05:59:14;;;;;;;142.85;59.25;;;;;;;;;;5094816;28;20406;-84
2022/02/07 06:01:42;;;;;;;140.55;57.97;;;;;;;;;;5096634;28;20398;-86
2022/02/07 06:04:09;;;;;;;141.07;58.22;;;;;;;;;;5095340;28;20428;-85
2022/02/07 06:06:36;;;;;;;137.65;58.58;;;;;;;;;;5096353;28;20830;-86
2022/02/07 06:09:03;;;;;;;127.18;55.90;;;;;;;;;;5099841;28;20482;-84
2022/02/07 06:11:30;;;;;;;121.45;55.85;;;;;;;;;;5094763;28;20394;-86
2022/02/07 06:13:58;;;;;;;116.93;53.35;;;;;;;;;;5100008;28;20939;-87
2022/02/07 06:16:26;;;;;;;112.82;52.72;;;;;;;;;;5101374;28;20408;-84
2022/02/07 06:18:53;;;;;;;104.97;51.70;;;;;;;;;;5102818;28;20473;-86
2022/02/07 06:21:20;;;;;;;95.65;49.08;;;;;;;;;;5103012;28;20407;-84
2022/02/07 06:23:47;;;;;;;90.82;48.10;;;;;;;;;;5101552;28;20494;-86
2022/02/07 06:26:14;;;;;;;91.10;48.22;;;;;;;;;;5103547;28;21015;-86
2022/02/07 06:28:40;;;;;;;86.40;46.53;;;;;;;;;;5103224;28;20792;-86
2022/02/07 06:31:09;;;;;;;82.05;44.40;;;;;;;;;;5095478;28;20423;-86
2022/02/07 06:33:35;;;;;;;78.78;45.38;;;;;;;;;;5096983;28;20464;-85
2022/02/07 06:36:02;;;;;;;83.43;45.00;;;;;;;;;;5097052;28;20394;-85
2022/02/07 06:38:29;;;;;;;80.03;44.25;;;;;;;;;;5092970;28;20465;-86
2022/02/07 06:40:56;;;;;;;72.25;43.05;;;;;;;;;;5096027;28;20402;-87
2022/02/07 06:43:23;;;;;;;73.72;43.72;;;;;;;;;;5102118;28;20418;-87
2022/02/07 06:45:50;;;;;;;76.93;43.58;;;;;;;;;;5103851;28;20423;-87
2022/02/07 06:48:19;;;;;;;76.57;43.45;;;;;;;;;;5100255;28;20418;-86
2022/02/07 06:50:45;;;;;;;76.95;42.05;;;;;;;;;;5082832;28;21174;-85
2022/02/07 06:53:12;;;;;;;77.32;42.42;;;;;;;;;;5106032;28;20739;-85
2022/02/07 06:55:40;;;;;;;72.43;42.50;;;;;;;;;;5107565;28;20940;-84
2022/02/07 06:58:06;;;;;;;77.10;43.07;;;;;;;;;;5104921;28;20404;-85
2022/02/07 07:00:34;;;;;;;72.47;40.92;;;;;;;;;;5102226;28;20394;-83
2022/02/07 07:03:00;;;;;;;69.03;41.03;;;;;;;;;;5107523;28;20500;-83
2022/02/07 07:05:29;;;;;;;71.78;42.03;;;;;;;;;;5105286;28;20394;-85
2022/02/07 07:07:55;;;;;;;69.60;41.35;;;;;;;;;;5107952;28;20660;-84
2022/02/07 07:10:23;;;;;;;72.00;41.35;;;;;;;;;;5108129;28;20475;-84
2022/02/07 07:12:57;;;;;;;73.35;41.50;;;;;;;;;;5108017;28;20399;-83
2022/02/07 07:15:30;;;;;;;71.40;41.75;;;;;;;;;;5107276;28;20477;-84
2022/02/07 07:17:57;;;;;;;70.15;41.45;;;;;;;;;;5107525;28;20745;-84
2022/02/07 07:20:23;;;;;;;75.40;44.20;;;;;;;;;;5107580;28;20494;-85
2022/02/07 07:22:52;;;;;;;74.38;41.95;;;;;;;;;;5108217;28;20395;-84
2022/02/07 07:25:18;;;;;;;70.25;41.17;;;;;;;;;;5107688;28;20425;-85
2022/02/07 07:27:57;;;;;;;73.28;43.22;;;;;;;;;;5110021;28;20398;-84
2022/02/07 07:30:27;;;;;;;72.45;42.75;;;;;;;;;;5118174;28;20390;-84
2022/02/07 07:32:59;;;;;;;79.15;44.08;;;;;;;;;;5133452;28;20824;-83
2022/02/07 07:35:26;;;;;;;76.17;44.17;;;;;;;;;;5107907;28;20398;-84
2022/02/07 07:37:54;;;;;;;72.43;42.28;;;;;;;;;;5107459;28;20866;-84
2022/02/07 07:40:21;;;;;;;77.65;45.22;;;;;;;;;;5107644;28;20432;-82
2022/02/07 07:42:52;;;;;;;79.85;44.97;;;;;;;;;;5107957;28;20386;-85
2022/02/07 07:45:22;;;;;;;73.80;42.83;;;;;;;;;;5107498;28;20526;-84
2022/02/07 07:47:51;;;;;;;75.32;43.05;;;;;;;;;;5107493;28;20390;-84
2022/02/07 07:50:22;;;;;;;74.33;43.13;;;;;;;;;;5107165;28;20398;-83
2022/02/07 07:53:05;;;;;;;72.97;41.55;;;;;;;;;;5107728;28;20498;-85
2022/02/07 08:03:58;;;;;;;80.75;49.38;;;;;;;;;;5043780;28;20435;-84
2022/02/07 08:06:28;;;;;;;75.57;42.00;;;;;;;;;;5043326;28;20396;-84
2022/02/07 08:11:42;;;;;;;70.20;40.47;;;;;;;;;;5082536;28;20467;-84
2022/02/07 08:14:09;;;;;;;67.72;39.70;;;;;;;;;;5106851;28;20402;-85
2022/02/07 08:16:36;;;;;;;62.70;36.30;;;;;;;;;;5106482;28;20410;-83
2022/02/07 08:19:06;;;;;;;61.70;37.60;;;;;;;;;;5107130;28;20395;-84
2022/02/07 08:21:33;;;;;;;63.00;37.60;;;;;;;;;;5106891;28;20960;-83
2022/02/07 08:24:00;;;;;;;59.28;36.53;;;;;;;;;;5107225;28;20933;-84
2022/02/07 08:26:27;;;;;;;65.60;38.28;;;;;;;;;;5105271;28;20455;-84
2022/02/07 08:28:55;;;;;;;61.87;37.17;;;;;;;;;;5103806;28;20432;-85
2022/02/07 08:31:24;;;;;;;61.75;36.47;;;;;;;;;;5099074;28;20460;-83
2022/02/07 08:33:50;;;;;;;58.03;35.15;;;;;;;;;;5101780;28;20401;-83
2022/02/07 08:36:17;;;;;;;60.03;34.57;;;;;;;;;;5096136;28;20491;-83
2022/02/07 08:38:44;;;;;;;63.00;37.35;;;;;;;;;;5106475;28;20689;-84
2022/02/07 08:41:11;;;;;;;69.73;38.30;;;;;;;;;;5106374;28;20886;-83
2022/02/07 08:43:38;;;;;;;69.75;38.15;;;;;;;;;;5106336;28;20415;-84
2022/02/07 08:46:06;;;;;;;73.30;40.30;;;;;;;;;;5103487;28;20466;-86
2022/02/07 08:48:33;;;;;;;73.83;39.83;;;;;;;;;;5104559;28;20647;-83
2022/02/07 08:51:00;;;;;;;74.88;40.13;;;;;;;;;;5105619;28;20456;-82
2022/02/07 08:53:33;;;;;;;76.22;41.40;;;;;;;;;;5104804;28;20679;-82
2022/02/07 08:56:02;;;;;;;75.00;40.65;;;;;;;;;;5105414;28;20852;-84
2022/02/07 08:58:34;;;;;;;71.55;39.65;;;;;;;;;;5104732;28;20482;-83
2022/02/07 09:01:08;;;;;;;74.53;41.25;;;;;;;;;;5103369;28;20407;-84
2022/02/07 09:06:36;;;;;;;68.10;38.35;;;;;;;;;;5100700;28;20390;-82
2022/02/07 09:09:09;;;;;;;65.63;36.13;;;;;;;;;;5106033;28;20543;-83
2022/02/07 09:11:38;;;;;;;67.33;37.83;;;;;;;;;;5103031;28;20515;-83
2022/02/07 09:14:11;;;;;;;65.00;37.30;;;;;;;;;;5105860;28;20900;-84
2022/02/07 09:16:38;;;;;;;63.65;36.42;;;;;;;;;;5101803;28;20399;-85
2022/02/07 09:19:09;;;;;;;65.65;37.20;;;;;;;;;;5106635;28;20402;-86
2022/02/07 09:21:36;;;;;;;62.90;36.95;;;;;;;;;;5105312;28;20921;-84
2022/02/07 09:24:04;;;;;;;63.13;37.83;;;;;;;;;;5105681;28;20464;-87
2022/02/07 09:26:32;;;;;;;61.30;37.13;;;;;;;;;;5101350;28;20432;-86
2022/02/07 09:28:59;;;;;;;60.67;35.20;;;;;;;;;;5104580;28;20466;-88
2022/02/07 09:31:27;;;;;;;51.63;32.38;;;;;;;;;;5105339;28;20783;-87
2022/02/07 09:33:54;;;;;;;35.42;21.77;;;;;;;;;;5105708;28;20797;-86
2022/02/07 09:36:23;;;;;;;39.27;25.20;;;;;;;;;;5105322;28;20474;-88
2022/02/07 09:38:51;;;;;;;40.45;24.77;;;;;;;;;;5105294;28;20407;-85
2022/02/07 09:41:21;;;;;;;53.35;33.60;;;;;;;;;;5105154;28;20926;-87
2022/02/07 09:43:49;;;;;;;53.83;33.33;;;;;;;;;;5105177;28;20464;-86
2022/02/07 09:46:21;;;;;;;55.78;32.80;;;;;;;;;;5102811;28;20400;-87
2022/02/07 09:48:51;;;;;;;56.13;33.58;;;;;;;;;;5104082;28;20399;-87
2022/02/07 09:51:19;;;;;;;51.13;32.47;;;;;;;;;;5104616;28;20482;-86
2022/02/07 09:53:48;;;;;;;50.50;31.83;;;;;;;;;;5104910;28;20490;-87
2022/02/07 09:56:15;;;;;;;51.13;31.75;;;;;;;;;;5105495;28;20399;-88
2022/02/07 09:58:42;;;;;;;49.47;32.28;;;;;;;;;;5104515;28;20409;-87
2022/02/07 10:01:16;;;;;;;49.28;29.75;;;;;;;;;;5105390;28;20479;-86
2022/02/07 10:03:52;;;;;;;31.92;19.85;;;;;;;;;;5103033;28;20672;-87
2022/02/07 10:06:32;;;;;;;28.20;17.27;;;;;;;;;;5105390;28;20553;-87
2022/02/07 10:09:17;;;;;;;23.38;14.15;;;;;;;;;;5104543;28;20540;-87
2022/02/07 10:12:00;;;;;;;14.68;9.23;;;;;;;;;;5102907;28;20878;-87
2022/02/07 10:14:32;;;;;;;3.70;2.00;;;;;;;;;;5104852;28;20406;-88
2022/02/07 10:17:19;;;;;;;1.80;0.63;;;;;;;;;;5064075;28;20439;-87
2022/02/07 10:19:59;;;;;;;1.80;0.20;;;;;;;;;;5062870;28;20445;-88
2022/02/07 10:39:30;;;;;;;0.80;0.20;;;;;;;;;;5055444;28;20962;-86
2022/02/07 10:42:31;;;;;;;0.70;0.13;;;;;;;;;;5067216;28;20457;-87
2022/02/07 10:45:03;;;;;;;7.55;1.13;;;;;;;;;;5069214;28;20941;-87
2022/02/07 10:47:39;;;;;;;14.20;1.05;;;;;;;;;;5083806;28;20446;-85
2022/02/07 10:50:08;;;;;;;11.98;1.25;;;;;;;;;;5089873;28;20478;-88
2022/02/07 10:52:50;;;;;;;7.20;1.05;;;;;;;;;;5062555;28;20497;-85
2022/02/07 10:55:25;;;;;;;15.50;0.98;;;;;;;;;;5062965;28;20407;-86
2022/02/07 10:57:57;;;;;;;20.60;1.17;;;;;;;;;;5064153;28;20453;-88
2022/02/07 11:00:29;;;;;;;15.52;0.80;;;;;;;;;;5063656;28;20495;-88
2022/02/07 11:03:05;;;;;;;13.88;0.63;;;;;;;;;;5063774;28;20505;-88
2022/02/07 11:05:39;;;;;;;10.52;1.10;;;;;;;;;;5063545;28;20541;-84
2022/02/07 11:16:39;;;;;;;3.75;0.40;;;;;;;;;;5092332;28;20489;-88
2022/02/07 11:19:15;;;;;;;5.32;0.30;;;;;;;;;;5104089;28;20470;-87
2022/02/07 11:22:12;;;;;;;1.53;0.20;;;;;;;;;;5102267;28;20528;-85
2022/02/07 11:25:03;;;;;;;2.07;0.20;;;;;;;;;;5104642;28;20526;-86
2022/02/07 11:27:37;;;;;;;4.65;0.20;;;;;;;;;;5103014;28;20456;-88
2022/02/07 11:30:10;;;;;;;0.40;0.10;;;;;;;;;;5103456;28;20849;-88
2022/02/07 11:32:55;;;;;;;2.00;0.50;;;;;;;;;;5104084;28;20561;-87
2022/02/07 11:35:24;;;;;;;1.45;0.22;;;;;;;;;;5102961;28;20410;-87
2022/02/07 11:37:54;;;;;;;0.45;0.10;;;;;;;;;;5104142;28;20449;-87
2022/02/07 11:40:26;;;;;;;1.33;0.20;;;;;;;;;;5105652;28;20402;-88
2022/02/07 11:43:08;;;;;;;0.68;0.13;;;;;;;;;;5108123;28;20451;-87
2022/02/07 11:45:51;;;;;;;0.05;0.00;;;;;;;;;;5106924;28;20471;-87
2022/02/07 11:48:20;;;;;;;0.10;0.10;;;;;;;;;;5106703;28;20441;-88
2022/02/07 11:50:48;;;;;;;0.10;0.10;;;;;;;;;;5107929;28;20450;-87
2022/02/07 11:53:20;;;;;;;0.50;0.10;;;;;;;;;;5107855;28;20749;-86
2022/02/07 11:55:55;;;;;;;1.08;0.20;;;;;;;;;;5107323;28;20456;-86
2022/02/07 11:58:26;;;;;;;0.20;0.10;;;;;;;;;;5107544;28;20399;-87
2022/02/07 12:00:58;;;;;;;1.58;0.30;;;;;;;;;;5107572;28;20432;-87
2022/02/07 12:03:26;;;;;;;0.60;0.00;;;;;;;;;;5106676;28;20399;-85
2022/02/07 12:05:57;;;;;;;0.20;0.13;;;;;;;;;;5107010;28;20584;-86
2022/02/07 12:08:25;;;;;;;0.43;0.10;;;;;;;;;;5091984;28;20423;-85
2022/02/07 12:11:10;;;;;;;0.40;0.20;;;;;;;;;;5096390;28;20762;-86
2022/02/07 12:13:40;;;;;;;0.20;0.10;;;;;;;;;;5094480;28;20498;-86
2022/02/07 12:16:12;;;;;;;0.43;0.10;;;;;;;;;;5097887;28;20896;-84
2022/02/07 12:18:39;;;;;;;2.20;0.10;;;;;;;;;;5090982;28;20508;-83
2022/02/07 12:21:18;;;;;;;3.17;0.15;;;;;;;;;;5098408;28;20780;-85
2022/02/07 12:23:49;;;;;;;0.30;0.10;;;;;;;;;;5091837;28;20449;-84
2022/02/07 12:26:17;;;;;;;0.93;0.40;;;;;;;;;;5095038;28;20424;-85
2022/02/07 12:28:46;;;;;;;0.68;0.30;;;;;;;;;;5091860;28;20404;-83
2022/02/07 12:31:20;;;;;;;0.57;0.10;;;;;;;;;;5088190;28;20409;-82
2022/02/07 12:33:53;;;;;;;0.50;0.20;;;;;;;;;;5102503;28;20409;-85
2022/02/07 12:36:21;;;;;;;0.55;0.30;;;;;;;;;;5104858;28;20398;-84
2022/02/07 12:38:48;;;;;;;0.63;0.08;;;;;;;;;;5103549;28;20812;-84
2022/02/07 12:41:16;;;;;;;0.50;0.20;;;;;;;;;;5082298;28;20454;-83
2022/02/07 12:43:48;;;;;;;1.63;0.10;;;;;;;;;;5091807;28;20412;-84
2022/02/07 12:46:19;;;;;;;2.00;0.40;;;;;;;;;;5092496;28;20422;-85
2022/02/07 12:48:51;;;;;;;1.10;0.00;;;;;;;;;;5092698;28;20904;-83
2022/02/07 12:51:20;;;;;;;1.70;0.10;;;;;;;;;;5093797;28;20400;-84
2022/02/07 12:53:48;;;;;;;1.75;0.08;;;;;;;;;;5092034;28;20469;-81
2022/02/07 12:56:16;;;;;;;0.70;0.08;;;;;;;;;;5086077;28;20489;-82
2022/02/07 12:58:44;;;;;;;2.30;0.10;;;;;;;;;;5085163;28;20414;-84
2022/02/07 13:01:23;;;;;;;2.25;0.30;;;;;;;;;;5090702;28;20462;-85
2022/02/07 13:03:52;;;;;;;1.02;0.30;;;;;;;;;;5094725;28;20417;-86
2022/02/07 13:06:28;;;;;;;0.35;0.20;;;;;;;;;;5096009;28;20419;-84
2022/02/07 13:08:57;;;;;;;0.00;0.00;;;;;;;;;;5095323;28;20448;-85
2022/02/07 13:11:27;;;;;;;2.65;0.15;;;;;;;;;;5093885;28;20440;-85
2022/02/07 13:13:55;;;;;;;1.33;0.20;;;;;;;;;;5076250;28;20453;-87
2022/02/07 13:16:23;;;;;;;0.30;0.25;;;;;;;;;;5094121;28;20396;-87
2022/02/07 13:18:51;;;;;;;1.00;0.20;;;;;;;;;;5071752;28;20407;-86
2022/02/07 13:21:18;;;;;;;0.10;0.10;;;;;;;;;;5090715;28;20400;-86
2022/02/07 13:23:47;;;;;;;2.33;0.30;;;;;;;;;;5091573;28;20411;-88
2022/02/07 13:26:16;;;;;;;2.10;0.82;;;;;;;;;;5091966;28;20412;-86
2022/02/07 13:28:43;;;;;;;1.90;0.30;;;;;;;;;;5089562;28;21034;-85
2022/02/07 13:31:12;;;;;;;0.80;0.10;;;;;;;;;;5093028;28;20400;-88
2022/02/07 13:33:52;;;;;;;0.75;0.20;;;;;;;;;;5072671;28;20495;-87
2022/02/07 13:36:27;;;;;;;0.20;0.10;;;;;;;;;;5092498;28;20400;-87
2022/02/07 13:39:03;;;;;;;4.75;0.80;;;;;;;;;;5080662;28;20410;-87
2022/02/07 13:41:30;;;;;;;1.75;0.10;;;;;;;;;;5100270;28;20417;-86
2022/02/07 13:44:00;;;;;;;0.10;0.10;;;;;;;;;;5106434;28;20402;-86
2022/02/07 13:46:29;;;;;;;0.50;0.20;;;;;;;;;;5105617;28;20501;-87
2022/02/07 13:48:59;;;;;;;0.10;0.10;;;;;;;;;;5104398;28;20426;-85
2022/02/07 13:51:28;;;;;;;1.15;0.20;;;;;;;;;;5098627;28;20480;-87
2022/02/07 13:53:56;;;;;;;0.50;0.13;;;;;;;;;;5106148;28;20422;-86
2022/02/07 13:56:30;;;;;;;0.50;0.10;;;;;;;;;;5104529;28;20456;-85
2022/02/07 13:59:13;;;;;;;0.30;0.10;;;;;;;;;;5106212;28;20430;-86
2022/02/07 14:01:40;;;;;;;0.43;0.20;;;;;;;;;;5103116;28;20407;-84
2022/02/07 14:04:18;;;;;;;0.30;0.25;;;;;;;;;;5104902;28;20395;-86
2022/02/07 14:07:07;;;;;;;0.25;0.10;;;;;;;;;;5103786;28;20527;-85
2022/02/07 14:09:35;;;;;;;0.10;0.10;;;;;;;;;;5098432;28;20400;-85
2022/02/07 14:12:03;;;;;;;0.17;0.10;;;;;;;;;;5081016;28;20407;-87
2022/02/07 14:14:30;;;;;;;0.38;0.10;;;;;;;;;;5104814;28;20849;-85
2022/02/07 14:16:58;;;;;;;0.63;0.20;;;;;;;;;;5105891;28;20997;-85
2022/02/07 14:19:43;;;;;;;1.10;0.20;;;;;;;;;;5104663;28;20403;-86
2022/02/07 14:22:11;;;;;;;0.20;0.17;;;;;;;;;;5102334;28;20882;-86
2022/02/07 14:24:39;;;;;;;0.98;0.22;;;;;;;;;;5097010;28;20429;-83
2022/02/07 14:27:06;;;;;;;0.20;0.10;;;;;;;;;;5094650;28;20420;-84
2022/02/07 14:29:34;;;;;;;0.40;0.20;;;;;;;;;;5101868;28;20456;-86
2022/02/07 14:32:01;;;;;;;0.00;0.00;;;;;;;;;;5106338;28;20897;-84
2022/02/07 14:34:28;;;;;;;0.10;0.10;;;;;;;;;;5100931;28;20484;-86
2022/02/07 14:36:56;;;;;;;0.60;0.10;;;;;;;;;;5109603;28;20402;-85
2022/02/07 14:39:23;;;;;;;1.40;0.10;;;;;;;;;;5106421;28;20459;-84
2022/02/07 14:41:52;;;;;;;0.10;0.10;;;;;;;;;;5099119;28;20466;-86
2022/02/07 14:44:26;;;;;;;0.20;0.10;;;;;;;;;;5098709;28;20486;-86
2022/02/07 14:47:05;;;;;;;0.30;0.10;;;;;;;;;;5100415;28;20502;-87
2022/02/07 14:49:32;;;;;;;0.90;0.00;;;;;;;;;;5099486;28;20777;-85
2022/02/07 14:52:03;;;;;;;0.10;0.10;;;;;;;;;;5098347;28;20386;-86
2022/02/07 14:54:32;;;;;;;0.47;0.15;;;;;;;;;;5125402;28;20891;-86
2022/02/07 14:56:59;;;;;;;2.83;0.25;;;;;;;;;;5119905;28;20451;-87
2022/02/07 14:59:26;;;;;;;0.52;0.10;;;;;;;;;;5098552;28;20434;-87
2022/02/07 15:01:54;;;;;;;0.85;0.10;;;;;;;;;;5099373;28;20402;-87
2022/02/07 15:04:21;;;;;;;0.20;0.10;;;;;;;;;;5095822;28;20408;-87
2022/02/07 15:06:48;;;;;;;1.10;0.20;;;;;;;;;;5080242;28;20418;-88
2022/02/07 15:09:18;;;;;;;1.35;0.30;;;;;;;;;;5100432;28;20411;-88
2022/02/07 15:11:45;;;;;;;0.00;0.00;;;;;;;;;;5101227;28;20403;-87
2022/02/07 15:14:13;;;;;;;0.30;0.10;;;;;;;;;;5095944;28;20390;-86
2022/02/07 15:16:40;;;;;;;0.30;0.10;;;;;;;;;;5101653;28;20407;-88
2022/02/07 15:19:07;;;;;;;1.13;0.20;;;;;;;;;;5103979;28;20778;-87
2022/02/07 15:21:34;;;;;;;0.83;0.10;;;;;;;;;;5100309;28;20797;-87
2022/02/07 15:24:01;;;;;;;0.98;0.20;;;;;;;;;;5094029;28;20769;-87
2022/02/07 15:26:30;;;;;;;1.00;0.10;;;;;;;;;;5095155;28;20451;-86
2022/02/07 15:28:58;;;;;;;0.20;0.20;;;;;;;;;;5097181;28;20497;-86
2022/02/07 15:31:30;;;;;;;0.70;0.28;;;;;;;;;;5096638;28;20407;-84
2022/02/07 15:33:58;;;;;;;0.77;0.20;;;;;;;;;;5101274;28;20390;-88
2022/02/07 15:36:26;;;;;;;0.47;0.20;;;;;;;;;;5097961;28;20416;-84
2022/02/07 15:38:53;;;;;;;0.30;0.20;;;;;;;;;;5099342;28;20402;-87
2022/02/07 15:41:20;;;;;;;0.10;0.10;;;;;;;;;;5102808;28;20395;-84
2022/02/07 15:43:48;;;;;;;1.17;0.40;;;;;;;;;;5099386;28;20481;-87
2022/02/07 15:46:16;;;;;;;0.73;0.30;;;;;;;;;;5080048;28;20412;-88
2022/02/07 15:48:43;;;;;;;1.95;0.30;;;;;;;;;;5095472;28;20423;-86
2022/02/07 15:51:10;;;;;;;1.52;0.85;;;;;;;;;;5097788;28;20406;-86
2022/02/07 15:53:37;;;;;;;0.20;0.10;;;;;;;;;;5100582;28;20449;-87
2022/02/07 15:56:05;;;;;;;0.57;0.47;;;;;;;;;;5097664;28;20395;-86
2022/02/07 15:58:32;;;;;;;0.70;0.40;;;;;;;;;;5097431;28;20415;-86
2022/02/07 16:01:01;;;;;;;1.15;0.10;;;;;;;;;;5100176;28;20451;-88
2022/02/07 16:03:27;;;;;;;0.50;0.10;;;;;;;;;;5095284;28;20411;-85
2022/02/07 16:05:54;;;;;;;0.93;0.10;;;;;;;;;;5097921;28;20551;-86
2022/02/07 16:08:21;;;;;;;0.52;0.35;;;;;;;;;;5096223;28;20482;-85
2022/02/07 16:10:48;;;;;;;1.60;0.70;;;;;;;;;;5100111;28;20485;-86
2022/02/07 16:13:20;;;;;;;0.40;0.20;;;;;;;;;;5099560;28;20390;-88
2022/02/07 16:15:49;;;;;;;0.60;0.40;;;;;;;;;;5095961;28;20414;-88
2022/02/07 16:18:19;;;;;;;0.88;0.20;;;;;;;;;;5098116;28;20905;-74
2022/02/07 16:20:46;;;;;;;0.50;0.10;;;;;;;;;;5093192;28;20895;-74
2022/02/07 16:23:13;;;;;;;1.13;0.40;;;;;;;;;;5099441;28;20548;-74
2022/02/07 16:25:40;;;;;;;0.52;0.20;;;;;;;;;;5098208;28;20796;-88
2022/02/07 16:28:26;;;;;;;0.65;0.20;;;;;;;;;;5102564;28;20408;-92
2022/02/07 16:30:58;;;;;;;0.10;0.10;;;;;;;;;;5096005;28;20878;-91